EW8321 Weather Reports


Display with metric or nautical units.
time (UTC)temp
F
wind
direction
speed
MPH
gust
MPH
rain 1hr
in
rain 24hr
in
rain mn
in
humidity
%
barometer
mb
20200709035204 67 0 0.0 0.0 0.01 0.35 0.35 92 1016.7
20200709034803 67 0 0.0 0.0 0.01 0.35 0.35 92 1016.7
20200709034404 67 0 0.0 0.0 0.01 0.35 0.35 92 1016.7
20200709034003 67 0 0.0 0.0 0.01 0.35 0.35 93 1016.7
20200709033605 67 0 0.0 0.0 0.01 0.35 0.35 93 1016.7
20200709033205 67 0 0.0 0.0 0.01 0.35 0.35 93 1016.8
20200709032805 67 0 0.0 0.0 0.01 0.35 0.35 93 1016.9
20200709032406 67 0 0.0 0.0 0.01 0.35 0.35 93 1017.0
20200709032005 68 0 0.0 0.0 0.01 0.35 0.35 93 1017.0
20200709031608 68 0 0.0 0.0 0.01 0.35 0.35 93 1017.0
20200709031207 68 0 0.0 0.0 0.01 0.35 0.35 93 1017.1
20200709030805 68 0 0.0 0.0 0.02 0.35 0.35 93 1017.0
20200709030405 68 0 0.0 0.0 0.03 0.34 0.34 93 1017.0
20200709030006 68 0 0.0 0.0 0.04 0.34 0.34 93 1017.0
20200709025604 68 0 0.0 0.0 0.07 0.34 0.34 93 1016.9
20200709025212 68 0 0.0 0.0 0.16 0.34 0.34 93 1016.9
20200709024805 68 0 0.0 0.0 0.26 0.34 0.34 93 1017.0
20200709024405 68 0 0.0 0.0 0.32 0.34 0.34 93 1017.0
20200709024005 68 0 0.0 0.0 0.32 0.34 0.34 93 1017.0
20200709023607 68 0 0.0 0.0 0.32 0.34 0.34 93 1017.0
20200709023205 68 0 0.0 0.0 0.32 0.34 0.34 90 1016.9
20200709022805 68 0 0.0 0.0 0.32 0.34 0.34 90 1016.8
20200709022405 68 0 0.0 0.0 0.32 0.34 0.34 90 1016.9
20200709022007 69 0 0.0 0.0 0.32 0.34 0.34 89 1016.8
20200709021631 69 0 0.0 0.0 0.32 0.34 0.34 89 1016.8
20200709021205 69 0 0.0 0.0 0.32 0.34 0.34 89 1016.8
20200709020805 69 0 0.0 1.0 0.31 0.33 0.33 88 1016.6
20200709020405 70 0 0.0 1.0 0.29 0.31 0.31 88 1016.5
20200709020007 70 200 1.0 3.0 0.27 0.29 0.29 88 1016.4
20200709015605 71 194 1.0 3.0 0.25 0.27 0.27 88 1016.4
20200709015205 72 188 1.0 2.0 0.16 0.18 0.18 88 1016.5
20200709014806 72 0 0.0 2.0 0.06 0.08 0.08 87 1016.6
20200709014405 72 0 0.0 2.0 0.00 0.02 0.02 90 1016.6
20200709014007 72 0 0.0 1.0 0.00 0.02 0.02 90 1016.4
20200709013605 72 0 0.0 1.0 0.00 0.02 0.02 90 1016.4
20200709013206 72 0 0.0 1.0 0.00 0.02 0.02 90 1016.4
20200709012807 72 0 0.0 1.0 0.00 0.02 0.02 89 1016.4
20200709012405 72 0 0.0 0.0 0.00 0.02 0.02 89 1016.3
20200709012005 73 0 0.0 0.0 0.00 0.02 0.02 89 1016.2
20200709011612 73 0 0.0 0.0 0.00 0.02 0.02 89 1016.2
20200709011205 73 0 0.0 0.0 0.00 0.02 0.02 89 1016.1
20200709010806 73 0 0.0 0.0 0.00 0.02 0.02 89 1016.1
20200709010405 73 0 0.0 0.0 0.00 0.02 0.02 89 1016.0
20200709010012 73 0 0.0 0.0 0.00 0.02 0.02 89 1015.8
20200709005604 73 0 0.0 0.0 0.00 0.02 0.02 89 1015.9
20200709005205 74 0 0.0 0.0 0.00 0.02 0.02 88 1015.9
20200709004806 74 0 0.0 0.0 0.00 0.02 0.02 88 1015.8
20200709004405 74 0 0.0 0.0 0.00 0.02 0.02 87 1015.8
20200709004005 74 0 0.0 0.0 0.00 0.02 0.02 87 1015.7
20200709003605 74 0 0.0 0.0 0.00 0.02 0.02 87 1015.7
20200709003204 74 0 0.0 0.0 0.00 0.02 0.02 87 1015.7
20200709002805 74 0 0.0 0.0 0.00 0.02 0.02 87 1015.7
20200709002405 75 0 0.0 0.0 0.00 0.02 0.02 87 1015.6
20200709002006 75 0 0.0 0.0 0.00 0.02 0.02 86 1015.6
20200709001608 75 0 0.0 0.0 0.00 0.02 0.02 86 1015.6
20200709001206 75 0 0.0 0.0 0.00 0.02 0.02 85 1015.3
20200709000805 75 0 0.0 0.0 0.00 0.02 0.02 85 1015.4
20200709000405 75 0 0.0 0.0 0.00 0.02 0.02 85 1015.4
20200709000024 75 0 0.0 0.0 0.00 0.02 0.02 85 1015.3
20200708235607 75 0 0.0 0.0 0.00 0.02 0.02 85 1015.3
20200708235204 75 0 0.0 0.0 0.00 0.02 0.02 85 1015.4
20200708234804 75 0 0.0 0.0 0.00 0.02 0.02 84 1015.4
20200708234404 76 0 0.0 0.0 0.00 0.03 0.02 84 1015.4
20200708234008 76 0 0.0 0.0 0.00 0.04 0.02 83 1015.5
20200708233605 76 0 0.0 0.0 0.00 0.05 0.02 83 1015.4
20200708233206 76 0 0.0 0.0 0.00 0.06 0.02 82 1015.2
20200708232805 76 0 0.0 0.0 0.00 0.06 0.02 82 1015.3
20200708232404 76 0 0.0 1.0 0.00 0.06 0.02 82 1015.2
20200708232005 76 0 0.0 1.0 0.00 0.09 0.02 82 1015.2
20200708231604 76 0 0.0 1.0 0.00 0.09 0.02 82 1015.3
20200708231205 76 0 0.0 1.0 0.00 0.09 0.02 81 1015.1
20200708230805 76 0 0.0 0.0 0.00 0.09 0.02 81 1015.0
20200708230405 76 0 0.0 0.0 0.00 0.09 0.02 81 1015.0
20200708230012 76 0 0.0 0.0 0.00 0.09 0.02 81 1015.1
20200708225605 76 0 0.0 0.0 0.00 0.09 0.02 80 1015.1
20200708225205 76 0 0.0 0.0 0.00 0.09 0.02 80 1015.2
20200708224806 76 0 0.0 1.0 0.00 0.09 0.02 79 1015.1
20200708224404 76 0 0.0 1.0 0.00 0.09 0.02 78 1015.1
20200708224009 77 0 0.0 2.0 0.00 0.09 0.02 77 1015.0
20200708223605 77 0 0.0 2.0 0.00 0.09 0.02 77 1015.2
20200708223204 77 0 0.0 2.0 0.00 0.09 0.02 78 1015.4
20200708222805 77 0 0.0 1.0 0.00 0.09 0.02 75 1015.3
20200708222404 77 0 0.0 0.0 0.00 0.09 0.02 77 1015.3
20200708222008 77 0 0.0 0.0 0.00 0.09 0.02 77 1015.3
20200708221605 77 0 0.0 0.0 0.00 0.09 0.02 76 1015.2
20200708221204 78 0 0.0 0.0 0.00 0.09 0.02 75 1015.2
20200708220805 78 0 0.0 0.0 0.00 0.09 0.02 76 1015.2
20200708220405 78 0 0.0 0.0 0.00 0.09 0.02 76 1015.2
20200708220006 77 0 0.0 0.0 0.00 0.09 0.02 76 1015.2
20200708215605 77 0 0.0 0.0 0.00 0.09 0.02 76 1015.2
20200708215204 76 0 0.0 1.0 0.00 0.09 0.02 75 1015.1
20200708214805 76 0 0.0 1.0 0.00 0.09 0.02 76 1015.0
20200708214405 76 0 0.0 1.0 0.00 0.09 0.02 77 1015.1
20200708214004 76 0 0.0 2.0 0.00 0.09 0.02 77 1015.0
20200708213605 76 0 0.0 2.0 0.00 0.09 0.02 76 1015.1
20200708213205 75 0 0.0 2.0 0.00 0.09 0.02 74 1015.3
20200708212805 75 0 0.0 2.0 0.00 0.09 0.02 75 1015.5
20200708212405 75 0 0.0 1.0 0.00 0.09 0.02 76 1015.5
20200708212005 76 0 0.0 1.0 0.00 0.09 0.02 76 1015.4
20200708211605 76 0 0.0 2.0 0.00 0.09 0.02 76 1015.4
20200708211205 76 344 1.0 3.0 0.00 0.09 0.02 77 1015.3
20200708210808 76 5 1.0 3.0 0.00 0.09 0.02 78 1015.4
20200708210405 76 42 1.0 3.0 0.00 0.09 0.02 76 1015.5
20200708210005 77 60 1.0 2.0 0.00 0.09 0.02 78 1015.6
20200708205604 78 0 0.0 2.0 0.00 0.09 0.02 78 1015.6
20200708205205 78 0 0.0 1.0 0.00 0.09 0.02 77 1015.4
20200708204804 78 0 0.0 0.0 0.00 0.09 0.02 76 1015.2
20200708204405 78 0 0.0 1.0 0.00 0.09 0.02 77 1015.3
20200708204004 78 0 0.0 1.0 0.01 0.09 0.02 78 1015.4
20200708203605 78 0 0.0 1.0 0.01 0.09 0.02 76 1015.3
20200708203204 78 0 0.0 1.0 0.01 0.09 0.02 79 1015.4
20200708202805 78 0 0.0 0.0 0.01 0.09 0.02 79 1015.2
20200708202410 77 0 0.0 0.0 0.01 0.09 0.02 82 1015.0
20200708202005 77 0 0.0 0.0 0.01 0.09 0.02 79 1014.9
20200708201604 77 0 0.0 0.0 0.01 0.09 0.02 80 1015.2
20200708201204 77 0 0.0 0.0 0.01 0.09 0.02 81 1015.3
20200708200806 77 0 0.0 0.0 0.01 0.09 0.02 81 1015.4
20200708200405 77 0 0.0 1.0 0.01 0.09 0.02 80 1015.5
20200708200005 78 0 0.0 1.0 0.01 0.09 0.02 80 1015.6
20200708195605 78 0 0.0 1.0 0.01 0.09 0.02 80 1015.5
20200708195205 78 0 0.0 1.0 0.01 0.09 0.02 78 1015.7
20200708194805 79 0 0.0 1.0 0.01 0.09 0.02 75 1015.8
20200708194404 80 0 0.0 1.0 0.01 0.09 0.02 75 1015.7
20200708193606 80 0 0.0 0.0 0.00 0.08 0.01 73 1015.6
20200708193204 81 0 0.0 1.0 0.00 0.08 0.01 72 1015.6
20200708192804 81 0 0.0 1.0 0.00 0.08 0.01 73 1015.5
20200708192405 81 0 0.0 1.0 0.00 0.08 0.01 73 1015.6
20200708192004 81 0 0.0 1.0 0.00 0.09 0.01 73 1015.6
20200708191605 81 0 0.0 1.0 0.00 0.10 0.01 71 1015.7
20200708191205 82 0 0.0 1.0 0.00 0.13 0.01 69 1015.8
20200708190807 82 0 0.0 1.0 0.00 0.18 0.01 67 1015.7
20200708190405 82 0 0.0 1.0 0.00 0.20 0.01 67 1015.7
20200708190007 82 0 0.0 1.0 0.00 0.23 0.01 69 1015.8
20200708185605 82 0 0.0 1.0 0.00 0.29 0.01 67 1015.8
20200708185205 83 0 0.0 1.0 0.00 0.50 0.01 66 1015.8
20200708184805 83 0 0.0 1.0 0.00 0.56 0.01 65 1015.8
20200708184404 84 0 0.0 0.0 0.00 0.63 0.01 65 1015.7
20200708184014 84 0 0.0 1.0 0.00 0.72 0.01 60 1015.7
20200708183605 85 0 0.0 1.0 0.00 0.78 0.01 61 1015.9
20200708183205 84 0 0.0 1.0 0.00 0.78 0.01 61 1015.8
20200708182804 84 0 0.0 1.0 0.00 0.78 0.01 58 1015.8
20200708182406 84 0 0.0 1.0 0.00 0.78 0.01 59 1015.8
20200708182004 84 0 0.0 1.0 0.00 0.78 0.01 57 1016.0
20200708181605 83 0 0.0 1.0 0.00 0.78 0.01 61 1016.1
20200708181205 83 0 0.0 1.0 0.00 0.78 0.01 61 1016.1
20200708180805 83 0 0.0 1.0 0.00 0.78 0.01 61 1016.2
20200708180405 83 0 0.0 3.0 0.00 0.78 0.01 62 1016.2
20200708180010 83 0 0.0 3.0 0.00 0.78 0.01 62 1016.3
20200708175604 82 316 1.0 3.0 0.00 0.78 0.01 62 1016.4
20200708175205 82 0 0.0 2.0 0.00 0.79 0.01 64 1016.5
20200708174804 82 0 0.0 3.0 0.00 0.79 0.01 65 1016.4
20200708174405 81 0 0.0 3.0 0.00 0.79 0.01 66 1016.4
20200708174013 81 0 0.0 0.0 0.00 0.79 0.01 66 1016.4
20200708173607 81 0 0.0 0.0 0.00 0.79 0.01 63 1016.6
20200708173205 81 0 0.0 0.0 0.00 0.79 0.01 67 1016.7
20200708172814 81 0 0.0 0.0 0.00 0.79 0.01 69 1016.9
20200708172404 81 0 0.0 0.0 0.00 0.79 0.01 73 1017.0
20200708172004 80 0 0.0 1.0 0.00 0.79 0.01 67 1016.8
20200708171605 80 0 0.0 3.0 0.00 0.79 0.01 69 1017.0
20200708171223 80 0 0.0 4.0 0.00 0.79 0.01 71 1017.1
20200708170813 80 0 0.0 4.0 0.00 0.79 0.01 67 1017.1
20200708170409 80 0 0.0 1.0 0.00 0.79 0.01 69 1017.1
20200708170011 79 235 1.0 1.0 0.00 0.79 0.01 70 1017.3
20200708165604 79 240 1.0 1.0 0.00 0.79 0.01 73 1017.2
20200708165205 79 0 0.0 3.0 0.00 0.79 0.01 72 1017.3
20200708164804 78 0 0.0 3.0 0.00 0.79 0.01 73 1017.2
20200708164404 78 0 0.0 2.0 0.00 0.79 0.01 75 1017.2
20200708164005 78 0 0.0 1.0 0.00 0.79 0.01 75 1017.3
20200708163605 78 356 1.0 3.0 0.00 0.79 0.01 74 1017.3
20200708163204 77 354 1.0 3.0 0.00 0.79 0.01 73 1017.3
20200708162804 77 337 1.0 3.0 0.00 0.79 0.01 72 1017.4
20200708162405 77 0 0.0 1.0 0.00 0.79 0.01 78 1017.4
20200708162015 76 0 0.0 3.0 0.00 0.79 0.01 78 1017.4
20200708161606 76 0 0.0 3.0 0.00 0.79 0.01 79 1017.4
20200708161205 75 0 0.0 0.0 0.00 0.79 0.01 82 1017.5
20200708160805 75 0 0.0 2.0 0.00 0.79 0.01 82 1017.5
20200708160408 75 0 0.0 2.0 0.00 0.79 0.01 81 1017.5
20200708160005 75 342 1.0 5.0 0.00 0.79 0.01 82 1017.6
20200708155604 75 0 0.0 5.0 0.00 0.79 0.01 81 1017.7
20200708155206 74 0 0.0 5.0 0.00 0.79 0.01 80 1017.6
20200708154805 74 0 0.0 1.0 0.00 0.79 0.01 83 1017.6
20200708154405 74 0 0.0 2.0 0.00 0.79 0.01 84 1017.6
20200708154004 73 0 0.0 2.0 0.00 0.79 0.01 84 1017.6
20200708153607 73 0 0.0 2.0 0.00 0.79 0.01 83 1017.6
20200708153206 73 0 0.0 2.0 0.00 0.79 0.01 83 1017.5
20200708152804 73 0 0.0 2.0 0.00 0.79 0.01 84 1017.6
20200708152404 73 0 0.0 2.0 0.00 0.79 0.01 84 1017.6
20200708152005 73 0 0.0 2.0 0.00 0.79 0.01 85 1017.7
20200708151607 73 0 0.0 1.0 0.00 0.79 0.01 87 1017.7
20200708151205 73 0 0.0 1.0 0.00 0.79 0.01 86 1017.7
20200708150804 72 0 0.0 2.0 0.00 0.79 0.01 87 1017.8
20200708150404 72 0 0.0 2.0 0.00 0.79 0.01 87 1017.8
20200708150015 72 356 1.0 3.0 0.00 0.79 0.01 86 1017.9
20200708145606 72 357 1.0 3.0 0.00 0.79 0.01 85 1018.0
20200708145204 72 359 1.0 3.0 0.00 0.79 0.01 86 1018.0
20200708144805 71 0 0.0 2.0 0.00 0.79 0.01 87 1017.9
20200708144405 71 0 0.0 1.0 0.00 0.79 0.01 88 1018.0
20200708144006 71 0 0.0 1.0 0.00 0.79 0.01 88 1018.0
20200708143609 71 0 0.0 0.0 0.00 0.79 0.01 88 1018.0
20200708143204 71 0 0.0 0.0 0.00 0.79 0.01 89 1017.9
20200708142805 71 0 0.0 0.0 0.00 0.79 0.01 89 1017.8
20200708142404 71 0 0.0 0.0 0.00 0.79 0.01 93 1017.8
20200708142005 70 0 0.0 0.0 0.00 0.79 0.01 93 1018.0
20200708141606 70 0 0.0 0.0 0.00 0.79 0.01 93 1017.9
20200708141205 70 0 0.0 1.0 0.00 0.79 0.01 93 1018.0
20200708140804 70 0 0.0 1.0 0.00 0.79 0.01 93 1018.0
20200708140404 70 0 0.0 0.0 0.00 0.79 0.01 93 1018.0
20200708140005 70 0 0.0 0.0 0.00 0.79 0.01 93 1018.0
20200708135606 70 0 0.0 0.0 0.00 0.79 0.01 93 1018.0
20200708135205 69 0 0.0 0.0 0.00 0.79 0.01 93 1017.9
20200708134804 70 0 0.0 0.0 0.00 0.79 0.01 93 1017.9
20200708134404 69 0 0.0 0.0 0.00 0.79 0.01 92 1018.0
20200708134004 69 0 0.0 0.0 0.00 0.79 0.01 92 1018.0
20200708133604 69 0 0.0 0.0 0.00 0.79 0.01 92 1018.0
20200708133204 69 0 0.0 0.0 0.00 0.79 0.01 92 1018.0
20200708132806 69 0 0.0 0.0 0.00 0.79 0.01 92 1017.9
20200708132404 69 0 0.0 0.0 0.00 0.79 0.01 92 1018.0
20200708132005 69 0 0.0 1.0 0.00 0.79 0.01 92 1017.9
20200708131605 69 0 0.0 1.0 0.00 0.79 0.01 92 1017.9
20200708131204 69 0 0.0 0.0 0.00 0.79 0.01 93 1018.0
20200708130807 69 0 0.0 0.0 0.00 0.79 0.01 93 1017.9
20200708130405 69 0 0.0 0.0 0.00 0.79 0.01 93 1017.9
20200708130008 69 0 0.0 0.0 0.00 0.79 0.01 93 1017.9
20200708125604 68 0 0.0 0.0 0.00 0.79 0.01 93 1017.8
20200708125205 68 0 0.0 0.0 0.00 0.79 0.01 93 1017.8
20200708124804 68 0 0.0 0.0 0.00 0.79 0.01 93 1017.8
20200708124404 68 0 0.0 0.0 0.00 0.79 0.01 93 1017.8
20200708124007 68 0 0.0 0.0 0.00 0.79 0.01 93 1017.8
20200708123609 68 0 0.0 0.0 0.00 0.79 0.01 93 1017.8
20200708123204 68 0 0.0 0.0 0.00 0.79 0.01 93 1017.7
20200708122808 68 0 0.0 1.0 0.00 0.79 0.01 93 1017.8
20200708122404 68 0 0.0 1.0 0.00 0.79 0.01 93 1017.8
20200708122004 68 0 0.0 0.0 0.00 0.79 0.01 93 1017.8
20200708121607 68 0 0.0 0.0 0.00 0.79 0.01 93 1017.8
20200708121204 68 0 0.0 0.0 0.00 0.79 0.01 93 1017.7
20200708120806 68 0 0.0 0.0 0.00 0.79 0.01 93 1017.7
20200708120404 68 0 0.0 0.0 0.00 0.79 0.01 93 1017.7
20200708120005 67 0 0.0 0.0 0.00 0.79 0.01 93 1017.6
20200708115607 67 0 0.0 0.0 0.00 0.79 0.01 93 1017.6
20200708115204 67 0 0.0 0.0 0.00 0.79 0.01 93 1017.7
20200708114808 67 0 0.0 0.0 0.00 0.79 0.01 93 1017.6
20200708114404 67 0 0.0 0.0 0.00 0.79 0.01 93 1017.6
20200708114004 67 0 0.0 0.0 0.00 0.79 0.01 93 1017.6
20200708113607 67 0 0.0 0.0 0.00 0.79 0.01 93 1017.6
20200708113205 67 0 0.0 0.0 0.00 0.79 0.01 93 1017.5
20200708112804 67 0 0.0 0.0 0.00 0.79 0.01 93 1017.5
20200708112406 67 0 0.0 0.0 0.00 0.79 0.01 93 1017.5
20200708112004 67 0 0.0 0.0 0.00 0.79 0.01 93 1017.5
20200708111608 67 0 0.0 0.0 0.00 0.79 0.01 93 1017.5
20200708111210 67 0 0.0 0.0 0.00 0.79 0.01 93 1017.5
20200708110805 67 0 0.0 0.0 0.00 0.79 0.01 93 1017.5
20200708110406 67 0 0.0 0.0 0.00 0.79 0.01 93 1017.5
20200708110009 67 0 0.0 0.0 0.00 0.79 0.01 93 1017.4
20200708105604 67 0 0.0 0.0 0.00 0.79 0.01 93 1017.3
20200708105204 67 0 0.0 0.0 0.00 0.79 0.01 93 1017.3
20200708104804 67 0 0.0 0.0 0.00 0.79 0.01 93 1017.2
20200708104406 67 0 0.0 0.0 0.00 0.79 0.01 93 1017.1
20200708104007 67 0 0.0 0.0 0.00 0.79 0.01 93 1017.1
20200708103604 67 0 0.0 0.0 0.00 0.79 0.01 93 1017.0
20200708103204 67 0 0.0 0.0 0.00 0.79 0.01 93 1017.0
20200708102804 67 0 0.0 1.0 0.00 0.79 0.01 93 1017.0
20200708102406 67 0 0.0 1.0 0.00 0.79 0.01 93 1017.0
20200708102004 66 0 0.0 1.0 0.00 0.79 0.01 93 1017.0
20200708101606 67 0 0.0 1.0 0.00 0.79 0.01 93 1017.1
20200708101205 67 0 0.0 0.0 0.00 0.79 0.01 93 1017.1
20200708100806 67 0 0.0 0.0 0.00 0.79 0.01 93 1017.0
20200708100405 67 0 0.0 0.0 0.00 0.79 0.01 93 1016.9
20200708100010 67 0 0.0 0.0 0.00 0.79 0.01 93 1016.8
20200708095605 67 0 0.0 0.0 0.00 0.79 0.01 93 1016.7
20200708095204 67 0 0.0 0.0 0.00 0.79 0.01 93 1016.7
20200708094804 67 0 0.0 0.0 0.00 0.79 0.01 93 1016.5
20200708094404 67 0 0.0 0.0 0.00 0.79 0.01 93 1016.5
20200708094004 67 0 0.0 0.0 0.00 0.79 0.01 93 1016.5
20200708093603 67 0 0.0 0.0 0.00 0.79 0.01 93 1016.5
20200708093204 67 0 0.0 0.0 0.00 0.79 0.01 93 1016.5
20200708092804 67 0 0.0 0.0 0.00 0.79 0.01 93 1016.4
20200708092405 67 0 0.0 0.0 0.00 0.79 0.01 93 1016.5
20200708092006 67 0 0.0 0.0 0.00 0.79 0.01 93 1016.4
20200708091604 67 0 0.0 0.0 0.00 0.79 0.01 93 1016.4
20200708091205 67 0 0.0 0.0 0.00 0.79 0.01 93 1016.4
20200708090807 67 0 0.0 0.0 0.00 0.79 0.01 93 1016.3
20200708090407 67 0 0.0 0.0 0.00 0.79 0.01 93 1016.3
20200708090007 67 0 0.0 0.0 0.00 0.79 0.01 93 1016.4
20200708085604 67 0 0.0 0.0 0.00 0.79 0.01 93 1016.3
20200708085205 67 0 0.0 0.0 0.00 0.79 0.01 93 1016.3
20200708084804 67 0 0.0 0.0 0.00 0.79 0.01 93 1016.3
20200708084404 67 0 0.0 0.0 0.00 0.79 0.01 93 1016.3
20200708084009 67 0 0.0 0.0 0.00 0.79 0.01 93 1016.3
20200708083608 67 0 0.0 0.0 0.00 0.79 0.01 93 1016.2
20200708083204 67 0 0.0 0.0 0.00 0.79 0.01 93 1016.3
20200708082804 67 0 0.0 0.0 0.00 0.79 0.01 93 1016.4
20200708082404 67 0 0.0 0.0 0.00 0.79 0.01 93 1016.4
20200708082004 67 0 0.0 0.0 0.00 0.79 0.01 93 1016.5
20200708081604 67 0 0.0 0.0 0.01 0.79 0.01 93 1016.5
20200708081204 67 0 0.0 0.0 0.01 0.79 0.01 93 1016.5
20200708080806 67 0 0.0 0.0 0.01 0.79 0.01 93 1016.5
20200708080404 67 0 0.0 0.0 0.01 0.79 0.01 93 1016.4
20200708080007 67 0 0.0 0.0 0.01 0.79 0.01 93 1016.5
20200708075605 67 0 0.0 0.0 0.01 0.79 0.01 93 1016.5
20200708075204 67 0 0.0 0.0 0.01 0.79 0.01 93 1016.5
20200708074803 67 0 0.0 0.0 0.01 0.79 0.01 93 1016.5
20200708074407 67 0 0.0 0.0 0.01 0.79 0.01 93 1016.5
20200708074005 67 0 0.0 0.0 0.01 0.79 0.01 93 1016.6
20200708073604 67 0 0.0 0.0 0.01 0.79 0.01 93 1016.6
20200708073205 67 0 0.0 0.0 0.01 0.79 0.01 93 1016.6
20200708072804 67 0 0.0 0.0 0.01 0.79 0.01 93 1016.6
20200708072403 67 0 0.0 0.0 0.01 0.79 0.01 93 1016.6
20200708072004 67 0 0.0 0.0 0.01 0.79 0.01 93 1016.7
20200708071604 67 0 0.0 0.0 0.00 0.78 0.00 93 1016.7
20200708071208 67 0 0.0 0.0 0.00 0.78 0.00 93 1016.7
20200708070804 67 0 0.0 0.0 0.00 0.78 0.00 93 1016.8
20200708070403 67 0 0.0 0.0 0.00 0.78 0.00 93 1016.8
20200708070010 67 0 0.0 0.0 0.00 0.78 0.00 93 1016.8
20200708065604 67 0 0.0 0.0 0.00 0.78 0.00 93 1016.9
20200708065205 67 0 0.0 0.0 0.00 0.78 0.00 93 1017.0
20200708064806 67 0 0.0 0.0 0.00 0.78 0.00 93 1017.0
20200708064403 67 0 0.0 0.0 0.00 0.78 0.00 93 1017.1
20200708064004 67 0 0.0 0.0 0.00 0.78 0.00 93 1017.0
20200708063609 67 0 0.0 0.0 0.00 0.78 0.00 93 1017.0
20200708063203 67 0 0.0 0.0 0.00 0.78 0.00 93 1017.1
20200708062804 67 0 0.0 0.0 0.00 0.78 0.00 93 1017.2
20200708062404 67 0 0.0 0.0 0.00 0.78 0.00 93 1017.2
20200708062007 67 0 0.0 0.0 0.00 0.78 0.00 93 1017.2
20200708061606 67 0 0.0 0.0 0.00 0.78 0.00 93 1017.2
20200708061204 67 0 0.0 0.0 0.00 0.78 0.00 93 1017.2
20200708060804 67 0 0.0 0.0 0.00 0.78 0.00 93 1017.2
20200708060404 67 0 0.0 0.0 0.00 0.79 0.00 93 1017.3
20200708060008 67 0 0.0 0.0 0.00 0.79 0.00 93 1017.3
20200708055604 67 0 0.0 0.0 0.00 0.79 0.00 93 1017.4
20200708055204 67 0 0.0 0.0 0.00 0.79 0.00 93 1017.4
20200708054803 67 0 0.0 0.0 0.00 0.79 0.00 93 1017.3
20200708054406 67 0 0.0 0.0 0.00 0.79 0.00 93 1017.3
20200708054004 67 0 0.0 0.0 0.00 0.79 0.00 93 1017.2
20200708053603 67 0 0.0 0.0 0.00 0.79 0.00 93 1017.3
20200708053204 67 0 0.0 0.0 0.00 0.80 0.00 93 1017.3
20200708052803 67 0 0.0 0.0 0.00 0.80 0.00 93 1017.4
20200708052403 67 0 0.0 0.0 0.00 0.80 0.00 93 1017.4
20200708052004 67 0 0.0 0.0 0.00 0.80 0.00 93 1017.4
20200708051606 67 0 0.0 0.0 0.00 0.80 0.00 92 1017.5
20200708051204 67 0 0.0 0.0 0.00 0.80 0.00 93 1017.6
20200708050803 67 0 0.0 0.0 0.00 0.80 0.00 93 1017.7
20200708050403 67 0 0.0 0.0 0.00 0.80 0.00 93 1017.7
20200708050006 67 0 0.0 0.0 0.00 0.80 0.00 92 1017.8
20200708045604 67 0 0.0 0.0 0.00 0.80 0.00 93 1017.8
20200708045203 67 0 0.0 0.0 0.00 0.80 0.00 92 1017.8
20200708044804 67 0 0.0 0.0 0.00 0.80 0.00 92 1017.8
20200708044405 67 0 0.0 0.0 0.00 0.80 0.00 92 1017.7
20200708044004 67 0 0.0 0.0 0.00 0.80 0.00 92 1017.8
20200708043606 67 0 0.0 0.0 0.00 0.80 0.00 92 1017.7
20200708043203 67 0 0.0 0.0 0.00 0.80 0.00 92 1017.8
20200708042804 67 0 0.0 0.0 0.00 0.80 0.00 92 1017.7
20200708042403 67 0 0.0 0.0 0.00 0.80 0.00 92 1017.8
20200708042004 67 0 0.0 0.0 0.00 0.80 0.00 92 1017.8
20200708041606 67 0 0.0 0.0 0.00 0.80 0.00 92 1017.7
20200708041203 67 0 0.0 0.0 0.00 0.80 0.00 92 1017.8
20200708040804 67 0 0.0 0.0 0.00 0.80 0.00 92 1017.7
20200708040403 67 0 0.0 0.0 0.00 0.80 0.00 92 1017.7
20200708040005 67 0 0.0 0.0 0.00 0.80 0.00 92 1017.6
20200708035604 67 0 0.0 0.0 0.00 0.80 0.80 92 1017.7